Time;durP1;ratioP1;P1;durP2;ratioP2;P2;SDS_P1;SDS_P2;PMS_P1;PMS_P2;Temp;Humidity;BMP_temperature;BMP_pressure;BME280_temperature;BME280_humidity;BME280_pressure;Samples;Min_cycle;Max_cycle;Signal;HPM_P1;HPM_P2
2023/09/13 00:00:48;;;;;;;;;15.25;15.00;;;;;26.16;100.00;100983.25;2122337;27;46883;-60
2023/09/13 00:01:48;;;;;;;;;13.20;11.60;;;;;26.17;100.00;100975.97;2123234;27;46234;-60
2023/09/13 00:02:48;;;;;;;;;17.00;14.00;;;;;26.20;100.00;100973.00;2104345;28;46381;-59
2023/09/13 00:03:49;;;;;;;;;11.25;11.25;;;;;26.19;100.00;100969.44;2104450;28;46278;-60
2023/09/13 00:04:49;;;;;;;;;15.00;14.75;;;;;26.09;100.00;100972.03;2122676;27;46512;-61
2023/09/13 00:05:49;;;;;;;;;13.75;12.00;;;;;26.10;100.00;100972.91;2111481;27;46792;-59
2023/09/13 00:06:50;;;;;;;;;13.50;13.50;;;;;26.19;100.00;100971.28;2113363;27;46765;-61
2023/09/13 00:07:50;;;;;;;;;15.75;13.00;;;;;26.20;100.00;100973.00;2121983;27;46721;-61
2023/09/13 00:08:50;;;;;;;;;12.00;11.00;;;;;26.23;100.00;100972.75;2122665;27;46374;-60
2023/09/13 00:09:51;;;;;;;;;12.50;12.50;;;;;26.23;100.00;100976.34;2122494;27;46363;-60
2023/09/13 00:10:51;;;;;;;;;14.75;13.50;;;;;26.22;100.00;100973.75;2122446;27;46817;-60
2023/09/13 00:11:51;;;;;;;;;14.50;14.00;;;;;26.20;100.00;100975.72;2118928;27;46560;-60
2023/09/13 00:12:51;;;;;;;;;16.75;15.50;;;;;26.15;100.00;100978.81;2120722;27;46090;-60
2023/09/13 00:13:52;;;;;;;;;15.00;15.00;;;;;26.12;100.00;100981.78;2121097;27;46623;-60
2023/09/13 00:14:52;;;;;;;;;14.50;14.50;;;;;26.08;100.00;100978.47;2121081;27;47054;-60
2023/09/13 00:15:53;;;;;;;;;17.75;16.75;;;;;26.00;100.00;100972.78;2118533;27;46621;-60
2023/09/13 00:16:53;;;;;;;;;15.00;15.00;;;;;26.05;100.00;100980.59;2122562;27;46806;-60
2023/09/13 00:17:53;;;;;;;;;15.25;13.25;;;;;26.05;100.00;100977.88;2122710;27;46307;-60
2023/09/13 00:18:54;;;;;;;;;14.00;13.75;;;;;26.04;100.00;100977.00;2121739;27;46175;-60
2023/09/13 00:19:57;;;;;;;;;16.25;13.50;;;;;26.06;100.00;100977.75;2122536;27;46459;-61
2023/09/13 00:20:57;;;;;;;;;14.20;14.20;;;;;26.06;100.00;100977.75;2122569;27;46663;-60
2023/09/13 00:21:58;;;;;;;;;15.25;14.00;;;;;26.08;100.00;100975.75;2122849;27;46669;-60
2023/09/13 00:22:58;;;;;;;;;12.75;12.75;;;;;26.09;100.00;100982.06;2122415;27;46327;-61
2023/09/13 00:23:59;;;;;;;;;15.50;14.25;;;;;26.09;100.00;100982.91;2122622;27;46695;-60
2023/09/13 00:25:00;;;;;;;;;14.00;11.75;;;;;26.11;100.00;100977.34;2122359;27;46392;-60
2023/09/13 00:26:00;;;;;;;;;13.20;12.20;;;;;26.11;100.00;100983.66;2122520;27;46596;-60
2023/09/13 00:27:00;;;;;;;;;14.00;13.50;;;;;26.14;100.00;100984.38;2122781;27;46319;-59
2023/09/13 00:28:01;;;;;;;;;10.25;10.00;;;;;26.09;100.00;100980.19;2122651;27;46324;-62
2023/09/13 00:29:01;;;;;;;;;13.00;12.75;;;;;26.09;100.00;100974.75;2122668;27;46284;-61
2023/09/13 00:30:02;;;;;;;;;11.75;11.50;;;;;26.12;100.00;100973.63;2122556;27;46230;-60
2023/09/13 00:31:03;;;;;;;;;10.50;10.50;;;;;26.13;100.00;100969.91;2121004;27;46377;-60
2023/09/13 00:32:03;;;;;;;;;10.00;10.00;;;;;26.12;100.00;100970.91;2122471;27;46744;-61
2023/09/13 00:33:04;;;;;;;;;12.50;11.00;;;;;26.12;100.00;100984.50;2122677;27;46579;-61
2023/09/13 00:34:04;;;;;;;;;12.00;12.00;;;;;26.13;100.00;100978.09;2122206;27;46333;-61
2023/09/13 00:35:05;;;;;;;;;11.50;10.75;;;;;26.15;100.00;100980.66;2122849;27;46296;-61
2023/09/13 00:36:05;;;;;;;;;10.50;10.50;;;;;26.14;100.00;100982.53;2116688;27;46816;-60
2023/09/13 00:37:06;;;;;;;;;11.50;10.25;;;;;26.13;100.00;100983.53;2114835;27;45924;-60
2023/09/13 00:38:06;;;;;;;;;12.75;12.25;;;;;26.13;100.00;100977.22;2122156;27;46165;-60
2023/09/13 00:39:07;;;;;;;;;14.00;12.00;;;;;26.13;100.00;100977.22;2113435;27;45818;-62
2023/09/13 00:40:08;;;;;;;;;11.00;10.67;;;;;26.12;100.00;100970.91;2113483;27;46737;-61
2023/09/13 00:41:08;;;;;;;;;12.00;11.00;;;;;26.12;100.00;100976.34;2122320;27;46318;-61
2023/09/13 00:42:08;;;;;;;;;10.67;10.67;;;;;26.14;100.00;100976.22;2122487;27;46684;-62
2023/09/13 00:43:09;;;;;;;;;9.00;9.00;;;;;26.12;100.00;100970.91;2122800;27;46459;-61
2023/09/13 00:44:09;;;;;;;;;13.25;13.25;;;;;26.14;100.00;100984.38;2122258;27;46617;-61
2023/09/13 00:45:10;;;;;;;;;13.50;13.00;;;;;26.10;100.00;100981.94;2122535;27;46564;-61
2023/09/13 00:46:10;;;;;;;;;10.33;10.33;;;;;26.09;100.00;100973.91;2122735;27;46235;-61
2023/09/13 00:47:12;;;;;;;;;7.00;7.00;;;;;26.07;100.00;100975.88;2117122;27;46804;-61
2023/09/13 00:48:14;;;;;;;;;10.20;10.20;;;;;26.07;100.00;100981.31;2122239;27;46489;-61
2023/09/13 00:49:14;;;;;;;;;10.60;10.60;;;;;26.04;100.00;100982.44;2122172;27;46719;-61
2023/09/13 00:50:16;;;;;;;;;10.50;10.50;;;;;26.03;100.00;100977.97;2121809;27;46270;-60
2023/09/13 00:51:16;;;;;;;;;12.80;12.80;;;;;26.02;100.00;100983.53;2114054;27;46657;-60
2023/09/13 00:52:16;;;;;;;;;13.50;12.00;;;;;26.00;100.00;100989.09;2122368;27;46107;-61
2023/09/13 00:53:18;;;;;;;;;11.50;9.25;;;;;26.00;100.00;100985.53;2122748;27;46884;-59
2023/09/13 00:54:19;;;;;;;;;13.20;12.40;;;;;25.96;100.00;100986.78;2122191;27;46575;-61
2023/09/13 00:55:21;;;;;;;;;9.25;8.75;;;;;25.94;100.00;100986.03;2122451;27;46956;-61
2023/09/13 00:56:22;;;;;;;;;11.60;9.60;;;;;25.92;100.00;100986.19;2122411;27;46324;-61
2023/09/13 00:57:22;;;;;;;;;12.75;10.25;;;;;25.91;100.00;100986.28;2122277;27;46315;-61
2023/09/13 00:58:24;;;;;;;;;11.00;11.00;;;;;25.90;100.00;100987.25;2119644;27;46829;-61
2023/09/13 00:59:26;;;;;;;;;10.75;10.00;;;;;25.95;100.00;100994.06;2113522;27;46376;-60
2023/09/13 01:00:30;;;;;;;;;11.50;10.50;;;;;25.81;100.00;100989.75;2119480;27;46831;-61
2023/09/13 01:01:31;;;;;;;;;9.00;9.00;;;;;25.86;100.00;100992.09;2122406;27;46714;-60
2023/09/13 01:02:31;;;;;;;;;12.75;12.00;;;;;25.86;100.00;100992.09;2122290;27;46306;-60
2023/09/13 01:03:32;;;;;;;;;10.33;10.33;;;;;25.90;100.00;100985.41;2121650;27;46635;-61
2023/09/13 01:04:38;;;;;;;;;11.75;11.75;;;;;25.86;100.00;100993.94;2113852;27;46574;-61
2023/09/13 01:05:38;;;;;;;;;12.75;12.25;;;;;25.89;100.00;100991.84;2114074;27;46324;-58
2023/09/13 01:06:39;;;;;;;;;14.33;12.67;;;;;25.91;100.00;100986.28;2122435;27;45458;-59
2023/09/13 01:07:40;;;;;;;;;12.00;12.00;;;;;25.85;100.00;100982.22;2122508;27;46045;-60
2023/09/13 01:08:42;;;;;;;;;11.40;11.40;;;;;25.87;100.00;100988.38;2122070;27;45498;-61
2023/09/13 01:09:43;;;;;;;;;11.00;11.00;;;;;25.88;100.00;100984.66;2109788;27;46527;-60
2023/09/13 01:10:43;;;;;;;;;10.50;10.50;;;;;25.89;100.00;100982.81;2104346;28;47014;-61
2023/09/13 01:11:44;;;;;;;;;12.25;12.00;;;;;25.88;100.00;100983.81;2111290;27;46656;-61
2023/09/13 01:12:45;;;;;;;;;11.50;9.50;;;;;25.81;100.00;100989.75;2104736;27;46656;-60
2023/09/13 01:13:45;;;;;;;;;13.75;13.75;;;;;25.85;100.00;100981.34;2113326;27;47013;-61
2023/09/13 01:14:46;;;;;;;;;10.75;10.75;;;;;25.84;100.00;100974.19;2121676;27;46909;-61
2023/09/13 01:15:52;;;;;;;;;11.00;11.00;;;;;25.79;100.00;100982.69;2122512;27;46266;-61
2023/09/13 01:17:07;;;;;;;;;9.75;9.75;;;;;25.73;100.00;100986.78;2121963;27;46586;-59
2023/09/13 01:18:25;;;;;;;;;10.50;9.75;;;;;25.70;100.00;100986.19;2122767;27;46712;-60
2023/09/13 01:19:34;;;;;;;;;11.00;10.25;;;;;25.67;100.00;100980.97;2121931;27;46875;-61
2023/09/13 01:20:43;;;;;;;;;11.50;11.50;;;;;25.65;100.00;100985.63;2120310;27;46604;-61
2023/09/13 01:21:58;;;;;;;;;9.25;8.25;;;;;25.63;100.00;100983.03;2113560;27;47032;-59
2023/09/13 01:23:46;;;;;;;;;10.25;10.25;;;;;25.62;100.00;100984.03;2119920;27;47081;-61
2023/09/13 01:24:56;;;;;;;;;24.00;21.80;;;;;25.62;100.00;100981.31;2112239;27;46507;-61
2023/09/13 01:26:24;;;;;;;;;37.00;33.20;;;;;25.61;100.00;100985.03;2116905;27;46736;-61
2023/09/13 01:27:43;;;;;;;;;28.40;27.20;;;;;25.61;100.00;100989.59;2118663;27;46436;-61
2023/09/13 01:28:49;;;;;;;;;19.20;18.00;;;;;25.63;100.00;100990.34;2121974;27;46913;-61
2023/09/13 01:29:51;;;;;;;;;52.60;41.40;;;;;25.59;100.00;100987.00;2113077;27;45743;-60
2023/09/13 01:30:51;;;;;;;;;46.20;39.60;;;;;25.59;100.00;100986.13;2113533;27;46337;-60
2023/09/13 01:31:53;;;;;;;;;27.75;25.75;;;;;25.57;100.00;100983.56;2122080;27;46603;-60
2023/09/13 01:32:53;;;;;;;;;31.80;29.60;;;;;25.64;100.00;100986.63;2121810;27;46240;-60
2023/09/13 01:33:53;;;;;;;;;43.25;35.50;;;;;25.59;100.00;100983.44;2121892;27;46448;-61
2023/09/13 01:34:54;;;;;;;;;36.50;32.00;;;;;25.59;100.00;100978.84;2122066;27;46364;-61
2023/09/13 01:35:54;;;;;;;;;36.50;29.75;;;;;25.59;100.00;100988.88;2121678;27;46654;-61
2023/09/13 01:36:56;;;;;;;;;42.25;35.50;;;;;25.60;100.00;100994.16;2120786;27;46590;-61
2023/09/13 01:37:56;;;;;;;;;31.20;29.60;;;;;25.61;100.00;100992.31;2121817;27;46706;-61
2023/09/13 01:38:57;;;;;;;;;42.50;35.50;;;;;25.60;100.00;100990.59;2122129;27;46722;-61
2023/09/13 01:39:58;;;;;;;;;37.50;33.25;;;;;25.69;100.00;100989.88;2112725;27;46186;-61
2023/09/13 01:41:18;;;;;;;;;26.00;24.25;;;;;25.70;100.00;100995.19;2113120;27;46809;-61
2023/09/13 01:42:19;;;;;;;;;17.60;16.80;;;;;25.68;100.00;101001.72;2095200;28;46159;-61
2023/09/13 01:43:20;;;;;;;;;16.00;14.00;;;;;25.67;100.00;100998.13;2095910;28;46430;-61
2023/09/13 01:44:21;;;;;;;;;18.60;18.00;;;;;25.60;100.00;100996.03;2095078;28;46970;-59
2023/09/13 01:45:22;;;;;;;;;26.00;24.75;;;;;25.59;100.00;100992.44;2095842;28;46304;-59
2023/09/13 01:46:30;;;;;;;;;31.80;28.60;;;;;25.61;100.00;101006.78;2095331;28;46328;-60
2023/09/13 01:47:32;;;;;;;;;21.40;21.40;;;;;25.66;100.00;100999.09;2095534;28;46842;-58
2023/09/13 01:48:34;;;;;;;;;22.60;22.00;;;;;25.67;100.00;101003.56;2095653;28;47028;-60
2023/09/13 01:49:36;;;;;;;;;16.80;16.80;;;;;25.68;100.00;101002.59;2087136;28;45432;-60
2023/09/13 01:50:38;;;;;;;;;14.80;14.80;;;;;25.70;100.00;101006.06;2087112;28;46689;-60
2023/09/13 01:51:39;;;;;;;;;15.40;15.40;;;;;25.70;100.00;101002.50;2094681;28;46712;-60
2023/09/13 01:52:40;;;;;;;;;11.40;11.40;;;;;25.69;100.00;101000.75;2091667;28;47096;-60
2023/09/13 01:53:44;;;;;;;;;13.75;13.75;;;;;25.71;100.00;101005.09;2095553;28;46313;-59
2023/09/13 01:54:44;;;;;;;;;15.60;13.40;;;;;25.70;100.00;101005.22;2086568;28;46191;-60
2023/09/13 01:55:45;;;;;;;;;17.00;17.00;;;;;25.73;100.00;101015.81;2080384;28;46829;-61
2023/09/13 01:56:45;;;;;;;;;14.50;14.50;;;;;25.73;100.00;101013.09;2095438;28;46226;-60
2023/09/13 01:57:45;;;;;;;;;16.25;15.25;;;;;25.72;100.00;101012.25;2095523;28;46521;-62
2023/09/13 01:58:46;;;;;;;;;15.50;15.00;;;;;25.73;100.00;101010.38;2095580;28;46846;-60
2023/09/13 01:59:46;;;;;;;;;14.50;14.00;;;;;25.74;100.00;101017.56;2095185;28;46716;-60
2023/09/13 02:00:46;;;;;;;;;12.25;12.25;;;;;25.75;100.00;101019.28;2095498;28;46491;-61
2023/09/13 02:01:47;;;;;;;;;13.25;12.50;;;;;25.73;100.00;101019.41;2095481;28;46239;-61
2023/09/13 02:02:47;;;;;;;;;14.00;13.75;;;;;25.72;100.00;101024.97;2095654;28;46316;-61
2023/09/13 02:03:48;;;;;;;;;13.00;11.75;;;;;25.68;100.00;101021.59;2095367;28;46758;-60
2023/09/13 02:04:49;;;;;;;;;14.25;14.25;;;;;25.68;100.00;101021.59;2095494;28;47013;-59
2023/09/13 02:05:49;;;;;;;;;16.20;14.60;;;;;25.70;100.00;101027.81;2095644;28;45953;-60
2023/09/13 02:06:50;;;;;;;;;13.75;13.00;;;;;25.70;100.00;101024.22;2101309;28;46754;-60
2023/09/13 02:07:50;;;;;;;;;13.75;13.50;;;;;25.70;100.00;101030.53;2099775;28;46489;-60
2023/09/13 02:08:51;;;;;;;;;13.75;13.75;;;;;25.70;100.00;101025.09;2095413;28;46462;-58
2023/09/13 02:09:52;;;;;;;;;13.75;13.75;;;;;25.70;100.00;101021.53;2095522;28;46452;-60
2023/09/13 02:10:53;;;;;;;;;13.20;12.00;;;;;25.70;100.00;101027.81;2095476;28;47224;-60
2023/09/13 02:11:53;;;;;;;;;12.00;12.00;;;;;25.64;100.00;101032.84;2095162;28;46843;-61
2023/09/13 02:12:53;;;;;;;;;14.00;13.00;;;;;25.67;100.00;101025.31;2095248;28;46306;-60
2023/09/13 02:13:54;;;;;;;;;10.50;10.25;;;;;25.62;100.00;101032.09;2095334;28;46452;-60
2023/09/13 02:14:54;;;;;;;;;13.25;13.25;;;;;25.61;100.00;101035.81;2095757;28;47056;-61
2023/09/13 02:15:55;;;;;;;;;17.75;16.00;;;;;25.60;100.00;101034.06;2086834;28;46427;-61
2023/09/13 02:16:59;;;;;;;;;13.75;13.75;;;;;25.69;100.00;101030.66;2087083;28;46381;-61
2023/09/13 02:17:59;;;;;;;;;14.40;14.40;;;;;25.71;100.00;101031.41;2095617;28;46193;-58
2023/09/13 02:19:00;;;;;;;;;12.75;12.75;;;;;25.65;100.00;101026.41;2095278;28;46928;-60
2023/09/13 02:20:01;;;;;;;;;15.60;14.80;;;;;25.71;100.00;101029.53;2097114;27;46275;-60
2023/09/13 02:21:01;;;;;;;;;14.75;14.00;;;;;25.72;100.00;101027.69;2113006;27;46287;-60
2023/09/13 02:22:02;;;;;;;;;13.00;12.00;;;;;25.75;100.00;101033.75;2122067;27;46971;-61
2023/09/13 02:23:03;;;;;;;;;14.00;14.00;;;;;25.76;100.00;101029.16;2121615;27;46763;-61
2023/09/13 02:24:03;;;;;;;;;17.50;14.00;;;;;25.74;100.00;101025.72;2122044;27;46403;-61
2023/09/13 02:25:04;;;;;;;;;16.75;15.00;;;;;25.76;100.00;101027.31;2111136;27;46470;-61
2023/09/13 02:26:05;;;;;;;;;15.40;15.40;;;;;25.78;100.00;101032.63;2112646;27;47012;-61
2023/09/13 02:27:05;;;;;;;;;15.50;15.50;;;;;25.79;100.00;101032.53;2121602;27;46652;-60
2023/09/13 02:28:06;;;;;;;;;14.00;13.25;;;;;25.79;100.00;101035.25;2121760;27;46659;-60
2023/09/13 02:29:06;;;;;;;;;14.50;13.75;;;;;25.81;100.00;101035.13;2121483;27;46321;-61
2023/09/13 02:30:07;;;;;;;;;16.50;15.75;;;;;25.78;100.00;101038.06;2121196;27;46404;-61
2023/09/13 02:31:07;;;;;;;;;17.50;17.50;;;;;25.74;100.00;101031.16;2112415;27;46129;-61
2023/09/13 02:32:08;;;;;;;;;16.00;14.00;;;;;25.73;100.00;101035.72;2112638;27;46324;-61
2023/09/13 02:33:08;;;;;;;;;17.25;16.25;;;;;25.66;100.00;101041.72;2112739;27;46173;-61
2023/09/13 02:34:08;;;;;;;;;14.00;13.50;;;;;25.64;100.00;101049.13;2113262;27;46324;-60
2023/09/13 02:35:09;;;;;;;;;17.00;16.25;;;;;25.62;100.00;101043.81;2121705;27;46704;-62
2023/09/13 02:36:09;;;;;;;;;17.25;17.00;;;;;25.62;100.00;101048.41;2122469;27;46355;-61
2023/09/13 02:37:10;;;;;;;;;14.75;14.75;;;;;25.70;100.00;101043.25;2123212;27;46524;-61
2023/09/13 02:38:10;;;;;;;;;16.25;15.75;;;;;25.70;100.00;101037.81;2123275;27;47015;-60
2023/09/13 02:39:36;;;;;;;;;12.75;12.75;;;;;25.71;100.00;101045.00;2104555;28;46644;-61
2023/09/13 02:40:37;;;;;;;;;14.60;13.00;;;;;25.71;100.00;101043.13;2112855;27;46317;-61
2023/09/13 02:41:37;;;;;;;;;13.60;13.60;;;;;25.72;100.00;101044.00;2113963;27;46470;-61
2023/09/13 02:42:38;;;;;;;;;15.00;15.00;;;;;25.70;100.00;101046.84;2112673;27;46102;-60
2023/09/13 02:43:40;;;;;;;;;15.25;15.25;;;;;25.67;100.00;101047.06;2123254;27;46261;-61
2023/09/13 02:44:40;;;;;;;;;18.20;17.60;;;;;25.65;100.00;101049.00;2123150;27;46850;-59
2023/09/13 02:45:40;;;;;;;;;17.50;17.00;;;;;25.62;100.00;101048.41;2123424;27;46436;-60
2023/09/13 02:46:41;;;;;;;;;14.50;14.50;;;;;25.55;100.00;101052.63;2123032;27;46641;-59
2023/09/13 02:47:42;;;;;;;;;14.75;13.00;;;;;25.55;100.00;101053.47;2123146;27;46536;-60
2023/09/13 02:48:42;;;;;;;;;13.80;13.80;;;;;25.55;100.00;101053.47;2123352;27;46499;-60
2023/09/13 02:49:43;;;;;;;;;18.25;16.00;;;;;25.62;100.00;101056.56;2123103;27;46589;-60
2023/09/13 02:50:43;;;;;;;;;16.25;15.00;;;;;25.55;100.00;101055.34;2123353;27;46666;-58
2023/09/13 02:51:43;;;;;;;;;14.00;11.75;;;;;25.59;100.00;101054.09;2123052;27;46677;-61
2023/09/13 02:52:44;;;;;;;;;15.25;14.25;;;;;25.57;100.00;101054.22;2114014;27;46276;-60
2023/09/13 02:53:44;;;;;;;;;14.25;13.25;;;;;25.57;100.00;101053.34;2113997;27;46327;-61
2023/09/13 02:54:45;;;;;;;;;14.00;14.00;;;;;25.57;100.00;101056.06;2114520;27;46820;-60
2023/09/13 02:55:45;;;;;;;;;11.25;10.00;;;;;25.52;100.00;101061.84;2111805;27;46660;-59
2023/09/13 02:56:47;;;;;;;;;17.50;14.00;;;;;25.56;100.00;101055.22;2114160;27;46487;-60
2023/09/13 02:57:47;;;;;;;;;15.00;14.60;;;;;25.56;100.00;101055.22;2121928;27;46214;-60
2023/09/13 02:58:47;;;;;;;;;12.75;12.75;;;;;25.57;100.00;101056.94;2122899;27;46712;-60
2023/09/13 02:59:48;;;;;;;;;15.00;14.00;;;;;25.56;100.00;101051.63;2112801;27;46304;-60
2023/09/13 03:00:48;;;;;;;;;14.00;13.25;;;;;25.58;100.00;101053.22;2113971;27;46226;-60
2023/09/13 03:01:50;;;;;;;;;13.33;13.33;;;;;25.57;100.00;101058.78;2119713;27;45785;-60
2023/09/13 03:02:50;;;;;;;;;15.00;14.80;;;;;25.56;100.00;101057.91;2114618;27;46779;-60
2023/09/13 03:03:50;;;;;;;;;14.00;14.00;;;;;25.57;100.00;101064.22;2121212;27;46587;-60
2023/09/13 03:04:52;;;;;;;;;15.75;13.75;;;;;25.58;100.00;101055.09;2123180;27;46444;-60
2023/09/13 03:05:52;;;;;;;;;12.80;12.80;;;;;25.57;100.00;101053.34;2122997;27;46580;-60
2023/09/13 03:06:53;;;;;;;;;14.75;14.50;;;;;25.57;100.00;101056.06;2114036;27;46238;-60
2023/09/13 03:07:56;;;;;;;;;15.75;14.75;;;;;25.58;100.00;101057.78;2113736;27;46202;-60
2023/09/13 03:08:57;;;;;;;;;13.00;13.00;;;;;25.57;100.00;101058.78;2105416;28;46268;-60
2023/09/13 03:10:00;;;;;;;;;16.75;16.75;;;;;25.56;100.00;101054.34;2111979;27;46546;-60
2023/09/13 03:11:12;;;;;;;;;12.80;12.80;;;;;25.55;100.00;101056.19;2122858;27;47206;-61
2023/09/13 03:12:13;;;;;;;;;8.00;8.00;;;;;25.55;100.00;101058.91;2123724;27;46404;-61
2023/09/13 03:13:13;;;;;;;;;12.75;12.75;;;;;25.55;100.00;101058.03;2113911;27;46498;-61
2023/09/13 03:14:13;;;;;;;;;13.50;12.25;;;;;25.53;100.00;101050.84;2113883;27;46989;-61
2023/09/13 03:15:14;;;;;;;;;13.25;11.00;;;;;25.53;100.00;101060.84;2123134;27;46441;-61
2023/09/13 03:16:16;;;;;;;;;12.50;12.50;;;;;25.51;100.00;101047.41;2113776;27;46317;-61
2023/09/13 03:17:16;;;;;;;;;13.00;12.60;;;;;25.53;100.00;101056.28;2112929;27;46032;-61
2023/09/13 03:18:17;;;;;;;;;13.00;13.00;;;;;25.56;100.00;101057.91;2113968;27;46829;-61
2023/09/13 03:19:17;;;;;;;;;15.00;14.00;;;;;25.55;100.00;101058.03;2113687;27;46652;-61
2023/09/13 03:20:17;;;;;;;;;16.25;13.50;;;;;25.56;100.00;101057.06;2120825;27;46344;-61
2023/09/13 03:21:18;;;;;;;;;13.25;13.25;;;;;25.52;100.00;101054.56;2117173;27;46381;-61
2023/09/13 03:22:19;;;;;;;;;13.00;13.00;;;;;25.52;100.00;101060.00;2114407;27;46416;-61
2023/09/13 03:23:19;;;;;;;;;13.40;13.40;;;;;25.52;100.00;101064.56;2122946;27;46314;-60
2023/09/13 03:24:20;;;;;;;;;10.75;10.75;;;;;25.52;100.00;101065.44;2122913;27;46871;-61
2023/09/13 03:25:20;;;;;;;;;12.00;12.00;;;;;25.51;100.00;101062.84;2122774;27;46215;-60
2023/09/13 03:26:24;;;;;;;;;13.25;12.50;;;;;25.51;100.00;101058.25;2123001;27;46884;-61
2023/09/13 03:27:25;;;;;;;;;11.20;11.20;;;;;25.49;100.00;101062.97;2121846;27;46806;-61
2023/09/13 03:28:26;;;;;;;;;11.00;10.00;;;;;25.49;100.00;101060.25;2122475;27;46805;-61
2023/09/13 03:29:26;;;;;;;;;13.25;13.25;;;;;25.48;100.00;101061.22;2113804;27;46203;-61
2023/09/13 03:30:26;;;;;;;;;11.50;10.75;;;;;25.47;100.00;101059.50;2114297;27;46531;-60
2023/09/13 03:31:27;;;;;;;;;14.00;14.00;;;;;25.47;100.00;101059.50;2123118;27;46338;-61
2023/09/13 03:32:29;;;;;;;;;11.50;11.50;;;;;25.47;100.00;101056.78;2122813;27;46741;-61
2023/09/13 03:33:29;;;;;;;;;12.00;11.00;;;;;25.47;100.00;101064.94;2123298;27;46646;-61
2023/09/13 03:34:29;;;;;;;;;10.25;8.25;;;;;25.48;100.00;101066.66;2121804;27;46656;-61
2023/09/13 03:35:30;;;;;;;;;13.50;10.75;;;;;25.49;100.00;101062.97;2122784;27;46204;-60
2023/09/13 03:36:30;;;;;;;;;12.50;12.50;;;;;25.49;100.00;101062.09;2123643;27;46612;-61
2023/09/13 03:37:32;;;;;;;;;11.00;9.00;;;;;25.48;100.00;101061.22;2122979;27;46207;-61
2023/09/13 03:38:33;;;;;;;;;11.60;11.00;;;;;25.46;100.00;101057.78;2122742;27;46618;-60
2023/09/13 03:39:34;;;;;;;;;10.50;9.50;;;;;25.44;100.00;101062.47;2122972;27;46470;-59
2023/09/13 03:40:34;;;;;;;;;13.20;12.00;;;;;25.43;100.00;101060.75;2123063;27;46248;-60
2023/09/13 03:41:35;;;;;;;;;9.50;9.50;;;;;25.42;100.00;101059.00;2113757;27;46842;-60
2023/09/13 03:42:35;;;;;;;;;9.50;9.50;;;;;25.44;100.00;101058.88;2113836;27;46550;-60
2023/09/13 03:43:35;;;;;;;;;9.00;8.25;;;;;25.46;100.00;101063.22;2123128;27;46106;-61
2023/09/13 03:44:36;;;;;;;;;8.00;7.00;;;;;25.48;100.00;101060.38;2095880;28;46383;-60
2023/09/13 03:45:36;;;;;;;;;9.75;9.00;;;;;25.49;100.00;101060.25;2096291;28;46266;-60
2023/09/13 03:46:37;;;;;;;;;8.50;8.00;;;;;25.51;100.00;101063.69;2122834;27;46246;-61
2023/09/13 03:47:37;;;;;;;;;11.25;9.00;;;;;25.52;100.00;101054.56;2112643;27;47001;-60
2023/09/13 03:48:39;;;;;;;;;9.50;9.00;;;;;25.52;100.00;101050.97;2113622;27;46194;-61
2023/09/13 03:49:39;;;;;;;;;10.00;9.60;;;;;25.54;100.00;101049.03;2122706;27;46684;-61
2023/09/13 03:50:39;;;;;;;;;10.25;10.25;;;;;25.56;100.00;101048.91;2122986;27;46487;-61
2023/09/13 03:51:40;;;;;;;;;8.50;8.50;;;;;25.64;100.00;101051.84;2121830;27;46708;-60
2023/09/13 03:52:40;;;;;;;;;11.00;10.50;;;;;25.62;100.00;101051.13;2119565;27;45514;-61
2023/09/13 03:53:40;;;;;;;;;11.25;11.25;;;;;25.58;100.00;101042.34;2119426;27;45380;-60
2023/09/13 03:54:41;;;;;;;;;12.00;10.75;;;;;25.59;100.00;101051.38;2122964;27;46291;-61
2023/09/13 03:55:42;;;;;;;;;12.00;12.00;;;;;25.57;100.00;101047.91;2114015;27;46367;-60
2023/09/13 03:56:42;;;;;;;;;11.60;9.00;;;;;25.54;100.00;101046.31;2113961;27;46405;-60
2023/09/13 03:57:43;;;;;;;;;10.00;10.00;;;;;25.54;100.00;101046.31;2122455;27;46306;-62
2023/09/13 03:58:43;;;;;;;;;12.25;10.00;;;;;25.52;100.00;101043.69;2122956;27;46627;-60
2023/09/13 03:59:44;;;;;;;;;12.00;12.00;;;;;25.51;100.00;101050.09;2122309;27;46528;-60
2023/09/13 04:00:44;;;;;;;;;12.67;11.00;;;;;25.52;100.00;101046.41;2123146;27;46809;-60
2023/09/13 04:01:45;;;;;;;;;14.33;14.33;;;;;25.71;100.00;101047.72;2122956;27;46286;-60
2023/09/13 04:02:45;;;;;;;;;11.00;11.00;;;;;25.79;100.00;101042.50;2113506;27;46639;-61
2023/09/13 04:03:45;;;;;;;;;10.00;10.00;;;;;25.80;100.00;101042.41;2113775;27;46605;-60
2023/09/13 04:04:46;;;;;;;;;11.25;11.25;;;;;25.63;100.00;101047.41;2122962;27;46201;-62
2023/09/13 04:05:46;;;;;;;;;11.67;10.00;;;;;25.57;100.00;101051.50;2122730;27;46275;-62
2023/09/13 04:06:47;;;;;;;;;14.50;13.25;;;;;25.56;100.00;101057.06;2122496;27;47067;-61
2023/09/13 04:07:47;;;;;;;;;11.00;11.00;;;;;25.54;100.00;101049.03;2122643;27;46462;-61
2023/09/13 04:08:47;;;;;;;;;11.75;11.75;;;;;25.70;100.00;101052.28;2121703;27;46177;-60
2023/09/13 04:09:48;;;;;;;;;11.00;9.67;;;;;25.80;100.00;101053.28;2122637;27;46364;-59
2023/09/13 04:10:48;;;;;;;;;11.50;11.50;;;;;25.84;100.00;101053.91;2122360;27;46879;-62
2023/09/13 04:11:48;;;;;;;;;13.25;10.25;;;;;25.86;100.00;101048.34;2115451;27;46633;-60
2023/09/13 04:12:49;;;;;;;;;10.00;10.00;;;;;25.88;100.00;101057.22;2115428;27;46490;-59
2023/09/13 04:13:49;;;;;;;;;11.33;10.00;;;;;25.88;100.00;101062.66;2123075;27;46285;-59
2023/09/13 04:14:52;;;;;;;;;13.75;12.75;;;;;25.88;100.00;101059.94;2122641;27;47107;-60
2023/09/13 04:15:52;;;;;;;;;12.40;12.00;;;;;25.66;100.00;101056.19;2122752;27;46471;-60
2023/09/13 04:16:52;;;;;;;;;12.25;12.25;;;;;25.63;100.00;101059.16;2113285;27;46188;-60
2023/09/13 04:17:53;;;;;;;;;17.50;14.75;;;;;25.61;100.00;101058.41;2105126;28;47485;-61
2023/09/13 04:18:53;;;;;;;;;13.50;13.50;;;;;25.61;100.00;101058.41;2113070;27;46591;-60
2023/09/13 04:19:53;;;;;;;;;11.25;10.75;;;;;25.60;100.00;101055.81;2122500;27;46855;-60
2023/09/13 04:20:54;;;;;;;;;9.75;9.75;;;;;25.55;100.00;101058.91;2104345;28;45613;-60
2023/09/13 04:21:54;;;;;;;;;13.33;11.67;;;;;25.52;100.00;101054.56;2104554;28;46204;-60
2023/09/13 04:22:54;;;;;;;;;12.33;10.33;;;;;25.53;100.00;101053.56;2113862;27;46708;-58
2023/09/13 04:23:58;;;;;;;;;13.25;13.25;;;;;25.53;100.00;101055.41;2113315;27;46586;-60
2023/09/13 04:24:58;;;;;;;;;10.50;9.25;;;;;25.57;100.00;101056.94;2122432;27;46770;-60
2023/09/13 04:25:58;;;;;;;;;12.00;12.00;;;;;25.55;100.00;101047.19;2117828;27;47074;-59
2023/09/13 04:26:59;;;;;;;;;11.00;10.00;;;;;25.55;100.00;101050.75;2114230;27;46524;-59
2023/09/13 04:27:59;;;;;;;;;16.25;14.50;;;;;25.62;100.00;101051.13;2118969;27;47033;-59
2023/09/13 04:28:59;;;;;;;;;10.75;10.75;;;;;25.64;100.00;101054.56;2122612;27;46171;-60
2023/09/13 04:30:00;;;;;;;;;13.00;11.75;;;;;25.65;100.00;101054.44;2113571;27;46434;-61
2023/09/13 04:31:00;;;;;;;;;11.50;11.00;;;;;25.60;100.00;101053.97;2113260;27;46495;-60
2023/09/13 04:32:01;;;;;;;;;11.33;11.33;;;;;25.62;100.00;101051.13;2122964;27;46683;-61
2023/09/13 04:33:02;;;;;;;;;13.00;13.00;;;;;25.66;100.00;101049.88;2122574;27;45797;-61
2023/09/13 04:34:03;;;;;;;;;14.00;12.75;;;;;25.65;100.00;101045.44;2122797;27;47107;-61
2023/09/13 04:35:04;;;;;;;;;15.00;15.00;;;;;25.68;100.00;101050.66;2122944;27;46081;-61
2023/09/13 04:36:04;;;;;;;;;14.60;13.60;;;;;25.68;100.00;101054.22;2122142;27;46735;-61
2023/09/13 04:37:06;;;;;;;;;12.00;12.00;;;;;25.68;100.00;101053.38;2122483;27;46517;-61